Time;durP1;ratioP1;P1;durP2;ratioP2;P2;SDS_P1;SDS_P2;PMS_P1;PMS_P2;Temp;Humidity;BMP_temperature;BMP_pressure;BME280_temperature;BME280_humidity;BME280_pressure;Samples;Min_cycle;Max_cycle;Signal;HPM_P1;HPM_P2
2022/09/20 00:02:17;;;;;;;;;;;19.60;58.00;;;;;;5013244;28;19914;-72
2022/09/20 00:04:42;;;;;;;;;;;19.60;58.00;;;;;;4996576;28;19917;-71
2022/09/20 00:07:07;;;;;;;;;;;19.60;58.10;;;;;;5014821;28;19914;-72
2022/09/20 00:09:33;;;;;;;;;;;19.50;58.00;;;;;;4992168;28;19929;-72
2022/09/20 00:11:58;;;;;;;;;;;19.50;58.00;;;;;;5013559;28;19914;-72
2022/09/20 00:14:24;;;;;;;;;;;19.50;58.00;;;;;;5014573;28;19909;-71
2022/09/20 00:16:49;;;;;;;;;;;19.50;58.00;;;;;;5015676;28;19922;-72
2022/09/20 00:19:19;;;;;;;;;;;19.50;58.00;;;;;;5013684;28;20298;-72
2022/09/20 00:21:44;;;;;;;;;;;19.50;58.00;;;;;;5012094;28;19967;-72
2022/09/20 00:24:10;;;;;;;;;;;19.50;58.00;;;;;;5009653;28;20016;-72
2022/09/20 00:26:35;;;;;;;;;;;19.50;58.00;;;;;;5012504;28;19964;-72
2022/09/20 00:29:00;;;;;;;;;;;19.50;58.00;;;;;;5014807;28;19925;-72
2022/09/20 00:31:26;;;;;;;;;;;19.50;58.00;;;;;;5006718;28;19920;-72
2022/09/20 00:36:39;;;;;;;;;;;19.50;58.00;;;;;;5013013;28;19952;-70
2022/09/20 00:39:04;;;;;;;;;;;19.50;58.00;;;;;;5012443;28;19917;-72
2022/09/20 00:41:30;;;;;;;;;;;19.50;58.00;;;;;;5008498;28;20000;-72
2022/09/20 00:43:55;;;;;;;;;;;19.50;58.00;;;;;;5011870;28;20290;-72
2022/09/20 00:46:28;;;;;;;;;;;19.40;58.00;;;;;;5000744;28;19913;-72
2022/09/20 00:48:55;;;;;;;;;;;19.40;58.00;;;;;;5013126;28;19914;-72
2022/09/20 00:51:25;;;;;;;;;;;19.40;58.00;;;;;;5011896;28;20504;-71
2022/09/20 00:53:51;;;;;;;;;;;19.40;58.00;;;;;;5012790;28;20296;-72
2022/09/20 00:56:21;;;;;;;;;;;19.40;58.00;;;;;;5008820;28;20366;-73
2022/09/20 00:59:09;;;;;;;;;;;19.30;58.00;;;;;;5011690;28;19953;-72
2022/09/20 01:01:35;;;;;;;;;;;19.40;58.00;;;;;;5007994;28;19909;-72
2022/09/20 01:04:01;;;;;;;;;;;19.40;58.00;;;;;;5011008;28;20000;-71
2022/09/20 01:06:26;;;;;;;;;;;19.40;58.00;;;;;;5011439;28;19914;-72
2022/09/20 01:08:52;;;;;;;;;;;19.40;58.00;;;;;;5013184;28;19949;-72
2022/09/20 01:11:17;;;;;;;;;;;19.40;58.00;;;;;;5012144;28;19929;-72
2022/09/20 01:13:43;;;;;;;;;;;19.40;57.90;;;;;;5003898;28;19917;-73
2022/09/20 01:16:08;;;;;;;;;;;19.40;58.00;;;;;;5012395;28;20404;-72
2022/09/20 01:18:34;;;;;;;;;;;19.40;58.00;;;;;;5013464;28;20366;-71
2022/09/20 01:21:00;;;;;;;;;;;19.40;58.00;;;;;;4996377;28;20366;-71
2022/09/20 01:23:42;;;;;;;;;;;19.40;57.90;;;;;;5005920;28;19963;-71
2022/09/20 01:26:11;;;;;;;;;;;19.30;57.90;;;;;;5007818;28;19920;-72
2022/09/20 01:28:36;;;;;;;;;;;19.30;58.00;;;;;;5006230;28;19979;-72
2022/09/20 01:31:14;;;;;;;;;;;19.30;58.00;;;;;;5010691;28;20377;-72
2022/09/20 01:33:42;;;;;;;;;;;19.30;58.00;;;;;;4998159;28;19957;-72
2022/09/20 01:36:08;;;;;;;;;;;19.30;58.10;;;;;;5012412;28;19917;-72
2022/09/20 01:38:38;;;;;;;;;;;19.30;58.00;;;;;;5013344;28;19917;-72
2022/09/20 01:41:22;;;;;;;;;;;19.40;58.00;;;;;;4994552;28;19921;-73
2022/09/20 01:43:51;;;;;;;;;;;19.40;57.90;;;;;;5013193;28;19909;-72
2022/09/20 01:46:29;;;;;;;;;;;19.30;57.90;;;;;;5007523;28;19925;-72
2022/09/20 01:48:58;;;;;;;;;;;19.30;57.90;;;;;;4999868;28;19929;-72
2022/09/20 01:51:30;;;;;;;;;;;19.40;57.90;;;;;;5009755;28;20401;-71
2022/09/20 01:53:58;;;;;;;;;;;19.30;57.90;;;;;;5011328;28;19914;-72
2022/09/20 01:56:42;;;;;;;;;;;19.30;57.90;;;;;;5010918;28;19917;-72
2022/09/20 01:59:21;;;;;;;;;;;19.40;57.90;;;;;;5005114;28;19920;-72
2022/09/20 02:01:59;;;;;;;;;;;19.40;57.90;;;;;;5007129;28;19920;-72
2022/09/20 02:04:27;;;;;;;;;;;19.40;57.80;;;;;;5011745;28;20392;-72
2022/09/20 02:06:59;;;;;;;;;;;19.40;57.70;;;;;;5010310;28;20139;-72
2022/09/20 02:09:24;;;;;;;;;;;19.40;57.60;;;;;;5011090;28;20003;-72
2022/09/20 02:11:52;;;;;;;;;;;19.50;57.50;;;;;;5011143;28;20000;-72
2022/09/20 02:14:24;;;;;;;;;;;19.50;57.50;;;;;;5011622;28;19953;-72
2022/09/20 02:16:51;;;;;;;;;;;19.40;57.40;;;;;;5007539;28;19961;-72
2022/09/20 02:19:32;;;;;;;;;;;19.40;57.40;;;;;;5011165;28;19913;-72
2022/09/20 02:22:16;;;;;;;;;;;19.40;57.40;;;;;;5012096;28;19914;-72
2022/09/20 02:25:01;;;;;;;;;;;19.40;57.50;;;;;;5006743;28;19913;-72
2022/09/20 02:27:26;;;;;;;;;;;19.40;57.50;;;;;;4994976;28;19958;-72
2022/09/20 02:30:07;;;;;;;;;;;19.40;57.50;;;;;;5012478;28;20370;-71
2022/09/20 02:32:32;;;;;;;;;;;19.40;57.50;;;;;;5008584;28;19996;-72
2022/09/20 02:35:07;;;;;;;;;;;19.30;57.40;;;;;;5010574;28;20013;-73
2022/09/20 02:37:32;;;;;;;;;;;19.30;57.40;;;;;;5008315;28;19918;-72
2022/09/20 02:40:17;;;;;;;;;;;19.40;57.50;;;;;;5010729;28;20335;-72
2022/09/20 02:43:02;;;;;;;;;;;19.40;57.50;;;;;;5011105;28;19918;-72
2022/09/20 02:45:36;;;;;;;;;;;19.40;57.40;;;;;;5009101;28;20387;-72
2022/09/20 02:48:04;;;;;;;;;;;19.40;57.40;;;;;;5006572;28;19914;-72
2022/09/20 02:50:34;;;;;;;;;;;19.30;57.40;;;;;;5005072;28;19922;-71
2022/09/20 02:53:03;;;;;;;;;;;19.40;57.50;;;;;;4993252;28;19917;-72
2022/09/20 02:55:35;;;;;;;;;;;19.40;57.40;;;;;;5009423;28;20389;-72
2022/09/20 02:58:08;;;;;;;;;;;19.40;57.40;;;;;;4976705;28;19921;-72
2022/09/20 03:00:52;;;;;;;;;;;19.40;57.30;;;;;;5009372;28;20436;-72
2022/09/20 03:03:22;;;;;;;;;;;19.40;57.20;;;;;;5013873;28;19921;-72
2022/09/20 03:06:01;;;;;;;;;;;19.40;57.10;;;;;;5008756;28;19940;-72
2022/09/20 03:08:30;;;;;;;;;;;19.40;57.10;;;;;;5014921;28;19995;-73
2022/09/20 03:11:16;;;;;;;;;;;19.40;57.10;;;;;;5015294;28;21289;-71
2022/09/20 03:13:41;;;;;;;;;;;19.30;57.20;;;;;;5013942;28;19918;-73
2022/09/20 03:16:19;;;;;;;;;;;19.30;57.20;;;;;;5013849;28;19916;-72
2022/09/20 03:18:56;;;;;;;;;;;19.40;57.20;;;;;;5007383;28;19924;-72
2022/09/20 03:21:33;;;;;;;;;;;19.30;57.20;;;;;;5006167;28;19924;-71
2022/09/20 03:23:58;;;;;;;;;;;19.30;57.20;;;;;;5004906;28;19914;-72
2022/09/20 03:26:30;;;;;;;;;;;19.30;57.10;;;;;;5008089;28;19917;-72
2022/09/20 03:29:15;;;;;;;;;;;19.20;57.10;;;;;;5014557;28;19921;-72
2022/09/20 03:31:47;;;;;;;;;;;19.20;57.20;;;;;;5010488;28;20168;-71
2022/09/20 03:34:26;;;;;;;;;;;19.20;57.20;;;;;;5011428;28;19913;-69
2022/09/20 03:37:04;;;;;;;;;;;19.20;57.30;;;;;;5010009;28;19921;-72
2022/09/20 03:39:44;;;;;;;;;;;19.20;57.30;;;;;;5009652;28;20392;-72
2022/09/20 03:42:09;;;;;;;;;;;19.10;57.30;;;;;;5005645;28;19933;-72
2022/09/20 03:44:51;;;;;;;;;;;19.10;57.40;;;;;;5013757;28;19913;-72
2022/09/20 03:47:27;;;;;;;;;;;19.10;57.50;;;;;;5013058;28;20011;-73
2022/09/20 03:50:15;;;;;;;;;;;19.10;57.50;;;;;;5013655;28;19917;-72
2022/09/20 03:53:00;;;;;;;;;;;19.10;57.40;;;;;;5000682;28;19968;-72
2022/09/20 03:55:38;;;;;;;;;;;19.10;57.40;;;;;;5013327;28;19917;-69
2022/09/20 03:58:15;;;;;;;;;;;19.10;57.40;;;;;;5013232;28;19984;-73
2022/09/20 04:00:44;;;;;;;;;;;19.00;57.30;;;;;;5012915;28;19929;-72
2022/09/20 04:03:25;;;;;;;;;;;19.10;57.30;;;;;;5014450;28;20008;-73
2022/09/20 04:05:50;;;;;;;;;;;19.00;57.20;;;;;;5017710;28;19961;-72
2022/09/20 04:08:20;;;;;;;;;;;19.00;57.30;;;;;;5013111;28;20389;-72
2022/09/20 04:10:50;;;;;;;;;;;19.00;57.20;;;;;;5008093;28;20301;-72
2022/09/20 04:13:30;;;;;;;;;;;19.10;57.20;;;;;;5013353;28;19936;-72
2022/09/20 04:16:05;;;;;;;;;;;19.10;57.00;;;;;;5004840;28;19968;-72
2022/09/20 04:18:33;;;;;;;;;;;19.10;57.00;;;;;;5012553;28;20008;-72
2022/09/20 04:21:22;;;;;;;;;;;19.10;57.00;;;;;;5012777;28;19918;-73
2022/09/20 04:24:00;;;;;;;;;;;19.10;56.90;;;;;;5012141;28;19917;-72
2022/09/20 04:26:26;;;;;;;;;;;19.10;56.90;;;;;;5008714;28;19948;-72
2022/09/20 04:28:53;;;;;;;;;;;19.10;57.00;;;;;;5017499;28;19914;-73
2022/09/20 04:31:40;;;;;;;;;;;19.10;56.90;;;;;;5008688;28;19913;-72
2022/09/20 04:34:09;;;;;;;;;;;19.10;56.90;;;;;;5013499;28;19920;-72
2022/09/20 04:36:53;;;;;;;;;;;19.10;56.70;;;;;;5014167;28;20004;-72
2022/09/20 04:39:22;;;;;;;;;;;19.10;56.80;;;;;;5014482;28;19921;-72
2022/09/20 04:42:07;;;;;;;;;;;19.00;56.90;;;;;;5002562;28;19994;-72
2022/09/20 04:44:51;;;;;;;;;;;19.00;56.90;;;;;;5004322;28;19920;-72
2022/09/20 04:47:17;;;;;;;;;;;19.10;56.80;;;;;;5019310;28;19917;-72
2022/09/20 04:49:51;;;;;;;;;;;19.10;56.70;;;;;;4998997;28;20332;-72
2022/09/20 04:52:33;;;;;;;;;;;19.20;56.70;;;;;;5013642;28;20365;-72
2022/09/20 04:55:17;;;;;;;;;;;19.20;56.60;;;;;;5012857;28;19993;-73
2022/09/20 04:57:45;;;;;;;;;;;19.20;56.60;;;;;;5008143;28;20415;-72
2022/09/20 05:00:13;;;;;;;;;;;19.10;56.70;;;;;;5013370;28;20011;-72
2022/09/20 05:02:53;;;;;;;;;;;19.10;56.60;;;;;;4979757;28;19913;-72
2022/09/20 05:05:19;;;;;;;;;;;19.10;56.70;;;;;;5012623;28;19971;-72
2022/09/20 05:08:19;;;;;;;;;;;19.10;56.70;;;;;;5013130;28;19960;-72
2022/09/20 05:10:51;;;;;;;;;;;19.10;56.70;;;;;;4941779;29;19918;-71
2022/09/20 05:13:35;;;;;;;;;;;19.10;56.70;;;;;;4985614;28;19951;-72
2022/09/20 05:16:04;;;;;;;;;;;19.10;56.60;;;;;;5005763;28;19914;-72
2022/09/20 05:18:36;;;;;;;;;;;19.10;56.60;;;;;;5012528;28;19960;-71
2022/09/20 05:21:21;;;;;;;;;;;19.10;56.50;;;;;;5008767;28;19976;-73
2022/09/20 05:24:05;;;;;;;;;;;19.10;56.50;;;;;;4997704;28;19910;-72
2022/09/20 05:26:49;;;;;;;;;;;19.10;56.50;;;;;;5011258;28;19913;-72
2022/09/20 05:29:35;;;;;;;;;;;19.10;56.40;;;;;;5012687;28;19918;-73
2022/09/20 05:32:17;;;;;;;;;;;19.10;56.40;;;;;;5007437;28;19945;-73
2022/09/20 05:34:52;;;;;;;;;;;19.10;56.40;;;;;;5000751;28;19917;-72
2022/09/20 05:37:36;;;;;;;;;;;19.10;56.50;;;;;;4991871;28;19932;-72
2022/09/20 05:40:20;;;;;;;;;;;19.10;56.50;;;;;;4999751;28;20001;-72
2022/09/20 05:42:49;;;;;;;;;;;19.10;56.40;;;;;;5008324;28;19913;-72
2022/09/20 05:45:16;;;;;;;;;;;19.10;56.40;;;;;;5006034;28;19924;-72
2022/09/20 05:47:42;;;;;;;;;;;19.10;57.00;;;;;;5012823;28;19914;-71
2022/09/20 05:50:14;;;;;;;;;;;19.10;56.30;;;;;;5012773;28;19913;-73
2022/09/20 05:53:01;;;;;;;;;;;19.20;56.40;;;;;;5012297;28;19956;-73
2022/09/20 05:55:36;;;;;;;;;;;19.10;56.30;;;;;;5011449;28;19960;-72
2022/09/20 05:58:20;;;;;;;;;;;19.10;56.30;;;;;;5012969;28;20299;-73
2022/09/20 06:01:21;;;;;;;;;;;19.10;56.20;;;;;;5005723;28;20286;-73
2022/09/20 06:03:53;;;;;;;;;;;19.10;56.20;;;;;;4966540;28;19918;-72
2022/09/20 06:06:24;;;;;;;;;;;19.10;56.40;;;;;;5005491;28;19918;-71
2022/09/20 06:09:02;;;;;;;;;;;19.00;56.40;;;;;;5011426;28;20006;-72
2022/09/20 06:11:30;;;;;;;;;;;19.00;56.50;;;;;;5009928;28;19926;-72
2022/09/20 06:14:15;;;;;;;;;;;19.00;56.50;;;;;;5011713;28;19913;-73
2022/09/20 06:16:52;;;;;;;;;;;19.00;56.40;;;;;;4992759;28;19917;-72
2022/09/20 06:19:31;;;;;;;;;;;19.00;56.40;;;;;;5010870;28;19910;-72
2022/09/20 06:21:58;;;;;;;;;;;19.00;56.40;;;;;;5009280;28;19956;-71
2022/09/20 06:24:50;;;;;;;;;;;19.00;56.30;;;;;;5011441;28;19913;-72
2022/09/20 06:27:25;;;;;;;;;;;19.10;56.30;;;;;;4994548;28;19914;-71
2022/09/20 06:29:52;;;;;;;;;;;19.10;56.20;;;;;;5011096;28;19952;-72
2022/09/20 06:32:17;;;;;;;;;;;19.10;56.20;;;;;;5006793;28;19921;-72
2022/09/20 06:34:43;;;;;;;;;;;19.10;56.20;;;;;;5006404;28;20305;-72
2022/09/20 06:43:13;;;;;;;;;;;19.00;56.30;;;;;;5018842;28;19916;-73
2022/09/20 06:45:40;;;;;;;;;;;19.00;56.30;;;;;;5012083;28;19909;-72
2022/09/20 06:48:07;;;;;;;;;;;19.00;56.40;;;;;;5006083;28;19922;-72
2022/09/20 06:50:35;;;;;;;;;;;19.00;56.40;;;;;;5009603;28;19917;-72
2022/09/20 06:53:01;;;;;;;;;;;19.00;56.40;;;;;;5010580;28;19917;-72
2022/09/20 06:55:27;;;;;;;;;;;19.00;56.30;;;;;;5009754;28;20000;-71
2022/09/20 06:57:53;;;;;;;;;;;19.00;56.30;;;;;;5009956;28;20362;-72
2022/09/20 07:00:18;;;;;;;;;;;19.00;56.90;;;;;;4992292;28;19932;-72
2022/09/20 07:02:45;;;;;;;;;;;19.00;56.60;;;;;;4995540;28;19918;-72
2022/09/20 07:05:14;;;;;;;;;;;19.00;56.40;;;;;;5005577;28;19925;-72
2022/09/20 07:07:40;;;;;;;;;;;19.00;56.40;;;;;;5008293;28;19925;-71
2022/09/20 07:10:05;;;;;;;;;;;18.90;56.40;;;;;;4980389;28;19921;-73
2022/09/20 07:12:32;;;;;;;;;;;19.00;56.50;;;;;;4994210;28;19910;-72
2022/09/20 07:14:58;;;;;;;;;;;19.00;56.30;;;;;;5011940;28;20270;-73
2022/09/20 07:17:24;;;;;;;;;;;19.00;56.30;;;;;;5011918;28;19920;-72
2022/09/20 07:19:49;;;;;;;;;;;19.00;56.30;;;;;;5010094;28;19917;-73
2022/09/20 07:22:15;;;;;;;;;;;19.00;56.30;;;;;;5005805;28;19924;-72
2022/09/20 07:24:41;;;;;;;;;;;19.00;56.30;;;;;;4998978;28;19957;-73
2022/09/20 07:27:06;;;;;;;;;;;19.00;56.30;;;;;;5010945;28;19960;-72
2022/09/20 07:29:34;;;;;;;;;;;19.10;56.30;;;;;;5011112;28;19914;-72
2022/09/20 07:31:59;;;;;;;;;;;19.10;56.30;;;;;;5010432;28;19918;-73
2022/09/20 07:34:26;;;;;;;;;;;19.10;56.30;;;;;;5007813;28;20365;-73
2022/09/20 07:36:51;;;;;;;;;;;19.10;56.30;;;;;;5006243;28;19913;-72
2022/09/20 07:39:17;;;;;;;;;;;19.10;56.30;;;;;;5005477;28;20397;-72
2022/09/20 07:41:47;;;;;;;;;;;19.10;56.40;;;;;;5010470;28;19968;-72
2022/09/20 07:44:26;;;;;;;;;;;19.10;56.40;;;;;;5008440;28;19929;-72
2022/09/20 07:46:56;;;;;;;;;;;19.10;56.50;;;;;;5000457;28;20490;-72
2022/09/20 07:49:21;;;;;;;;;;;19.10;56.70;;;;;;5002148;28;20700;-71
2022/09/20 07:51:47;;;;;;;;;;;19.00;56.70;;;;;;5007648;28;20016;-71
2022/09/20 07:54:13;;;;;;;;;;;19.10;57.20;;;;;;5013181;28;20370;-73
2022/09/20 07:56:38;;;;;;;;;;;19.10;57.20;;;;;;5014564;28;19951;-73
2022/09/20 07:59:04;;;;;;;;;;;19.20;57.20;;;;;;5014089;28;20037;-73
2022/09/20 08:01:30;;;;;;;;;;;19.30;57.10;;;;;;5010558;28;19917;-72
2022/09/20 08:03:56;;;;;;;;;;;19.50;56.80;;;;;;5011410;28;20381;-72
2022/09/20 08:06:21;;;;;;;;;;;19.70;56.30;;;;;;5012575;28;20350;-72
2022/09/20 08:08:48;;;;;;;;;;;19.80;56.00;;;;;;5001847;28;20061;-72
2022/09/20 08:11:27;;;;;;;;;;;19.80;55.80;;;;;;5007094;28;20139;-72
2022/09/20 08:13:53;;;;;;;;;;;20.00;55.70;;;;;;5023788;28;19913;-71
2022/09/20 08:16:18;;;;;;;;;;;20.10;55.40;;;;;;4998612;28;19936;-73
2022/09/20 08:18:47;;;;;;;;;;;20.20;55.10;;;;;;5013852;28;19977;-71
2022/09/20 08:21:13;;;;;;;;;;;20.20;55.10;;;;;;4995441;28;19933;-72
2022/09/20 08:23:41;;;;;;;;;;;20.30;55.20;;;;;;5009736;28;19940;-72
2022/09/20 08:26:07;;;;;;;;;;;20.40;54.80;;;;;;5008367;28;19918;-72
2022/09/20 08:28:32;;;;;;;;;;;20.60;54.70;;;;;;5007622;28;19913;-72
2022/09/20 08:31:08;;;;;;;;;;;20.70;54.20;;;;;;5011883;28;20168;-72
2022/09/20 08:33:36;;;;;;;;;;;20.90;54.00;;;;;;5011253;28;20322;-72
2022/09/20 08:36:02;;;;;;;;;;;21.10;53.80;;;;;;5008315;28;19924;-71
2022/09/20 08:38:28;;;;;;;;;;;21.20;53.40;;;;;;5008257;28;19913;-72
2022/09/20 08:41:17;;;;;;;;;;;21.40;53.30;;;;;;5004506;28;20008;-71
2022/09/20 08:43:43;;;;;;;;;;;21.40;53.10;;;;;;5005106;28;20059;-72
2022/09/20 08:46:12;;;;;;;;;;;21.30;53.00;;;;;;5008920;28;19999;-73
2022/09/20 08:48:38;;;;;;;;;;;21.30;53.10;;;;;;5010640;28;19920;-73
2022/09/20 08:51:06;;;;;;;;;;;21.30;53.10;;;;;;5011704;28;19913;-73
2022/09/20 08:53:32;;;;;;;;;;;21.30;53.10;;;;;;5010696;28;20044;-73
2022/09/20 08:55:58;;;;;;;;;;;21.40;53.10;;;;;;5013731;28;19955;-72
2022/09/20 08:58:24;;;;;;;;;;;21.50;53.00;;;;;;5010024;28;19959;-72
2022/09/20 09:00:49;;;;;;;;;;;21.60;52.90;;;;;;5015003;28;19921;-73
2022/09/20 09:03:16;;;;;;;;;;;21.70;52.60;;;;;;4994425;28;19921;-73
2022/09/20 09:05:46;;;;;;;;;;;21.80;52.40;;;;;;5012063;28;19949;-73
2022/09/20 09:08:15;;;;;;;;;;;21.90;52.30;;;;;;4992293;28;19914;-73
2022/09/20 09:10:41;;;;;;;;;;;21.90;52.10;;;;;;5018494;28;20450;-71
2022/09/20 09:13:06;;;;;;;;;;;22.00;52.10;;;;;;4992063;28;19913;-72
2022/09/20 09:15:35;;;;;;;;;;;22.10;51.90;;;;;;5013033;28;19939;-73
2022/09/20 09:18:00;;;;;;;;;;;22.10;51.80;;;;;;5010944;28;19917;-72
2022/09/20 09:20:26;;;;;;;;;;;22.20;51.60;;;;;;5010176;28;20455;-73
2022/09/20 09:22:58;;;;;;;;;;;22.20;51.60;;;;;;5009919;28;20004;-72
2022/09/20 09:25:42;;;;;;;;;;;22.30;51.50;;;;;;5014025;28;19913;-73
2022/09/20 09:28:07;;;;;;;;;;;22.40;51.40;;;;;;4997167;28;20396;-73
2022/09/20 09:30:36;;;;;;;;;;;22.50;51.30;;;;;;5012834;28;19917;-73
2022/09/20 09:33:21;;;;;;;;;;;22.50;51.10;;;;;;5010304;28;19932;-72
2022/09/20 09:35:52;;;;;;;;;;;22.50;51.00;;;;;;5007877;28;19975;-72
2022/09/20 09:38:20;;;;;;;;;;;22.50;51.10;;;;;;5009185;28;20289;-73
2022/09/20 09:40:53;;;;;;;;;;;22.40;51.20;;;;;;5011335;28;19917;-72
2022/09/20 09:43:20;;;;;;;;;;;22.30;51.30;;;;;;5008172;28;19917;-71
2022/09/20 09:45:45;;;;;;;;;;;22.30;51.40;;;;;;5010710;28;19921;-72
2022/09/20 09:48:18;;;;;;;;;;;22.30;51.40;;;;;;5012623;28;19975;-73
2022/09/20 09:50:44;;;;;;;;;;;22.20;51.40;;;;;;5007586;28;19917;-72
2022/09/20 09:53:11;;;;;;;;;;;22.10;51.50;;;;;;5012199;28;19924;-73
2022/09/20 09:55:51;;;;;;;;;;;22.20;51.60;;;;;;5004274;28;19914;-73
2022/09/20 09:58:22;;;;;;;;;;;22.20;51.60;;;;;;5013352;28;19913;-73
2022/09/20 10:00:48;;;;;;;;;;;22.20;51.60;;;;;;5012043;28;19920;-72
2022/09/20 10:03:32;;;;;;;;;;;22.10;51.60;;;;;;5007374;28;20222;-73
2022/09/20 10:06:17;;;;;;;;;;;22.20;51.80;;;;;;5011931;28;19921;-73
2022/09/20 10:08:45;;;;;;;;;;;22.20;51.70;;;;;;5013256;28;19921;-73
2022/09/20 10:11:18;;;;;;;;;;;22.20;51.60;;;;;;5015304;28;19929;-73
2022/09/20 10:13:46;;;;;;;;;;;22.20;51.70;;;;;;5007389;28;19921;-73
2022/09/20 10:16:17;;;;;;;;;;;22.20;51.80;;;;;;5013406;28;19914;-73
2022/09/20 10:18:46;;;;;;;;;;;22.20;51.90;;;;;;5005883;28;19932;-72
2022/09/20 10:21:30;;;;;;;;;;;22.30;52.30;;;;;;5009555;28;19952;-73
2022/09/20 10:24:01;;;;;;;;;;;22.40;51.60;;;;;;5011787;28;19917;-73
2022/09/20 10:26:29;;;;;;;;;;;22.60;51.40;;;;;;5008187;28;20373;-73
2022/09/20 10:28:54;;;;;;;;;;;22.60;51.10;;;;;;5011254;28;19917;-72
2022/09/20 10:31:39;;;;;;;;;;;22.70;51.10;;;;;;5009382;28;19921;-73
2022/09/20 10:34:23;;;;;;;;;;;22.80;50.90;;;;;;5013327;28;19996;-73
2022/09/20 10:36:55;;;;;;;;;;;22.80;50.70;;;;;;5008166;28;20021;-72
2022/09/20 10:39:24;;;;;;;;;;;22.90;50.70;;;;;;5008067;28;19917;-73
2022/09/20 10:44:45;;;;;;;;;;;22.90;50.50;;;;;;5014957;28;19975;-72
2022/09/20 10:47:19;;;;;;;;;;;22.90;50.40;;;;;;4997714;28;19925;-72
2022/09/20 10:49:45;;;;;;;;;;;23.00;50.30;;;;;;5011175;28;19918;-72
2022/09/20 10:52:30;;;;;;;;;;;22.90;50.30;;;;;;5014327;28;20336;-73
2022/09/20 10:55:14;;;;;;;;;;;22.80;50.50;;;;;;5009009;28;19928;-73
2022/09/20 10:57:44;;;;;;;;;;;22.70;50.70;;;;;;5011225;28;19921;-73
2022/09/20 11:00:28;;;;;;;;;;;22.60;50.90;;;;;;5009620;28;20344;-72
2022/09/20 11:03:12;;;;;;;;;;;22.60;50.90;;;;;;4999041;28;20012;-74
2022/09/20 11:05:39;;;;;;;;;;;22.60;50.80;;;;;;5011161;28;19929;-73
2022/09/20 11:08:08;;;;;;;;;;;22.70;50.60;;;;;;5008679;28;19940;-73
2022/09/20 11:10:39;;;;;;;;;;;22.80;50.60;;;;;;4991068;28;19928;-71
2022/09/20 11:13:07;;;;;;;;;;;22.90;50.30;;;;;;5006964;28;20373;-73
2022/09/20 11:15:54;;;;;;;;;;;23.00;50.20;;;;;;5011607;28;19937;-73
2022/09/20 11:18:22;;;;;;;;;;;22.90;50.00;;;;;;4983468;28;20296;-73
2022/09/20 11:21:17;;;;;;;;;;;22.90;50.30;;;;;;5015383;28;19917;-72
2022/09/20 11:23:46;;;;;;;;;;;22.80;50.30;;;;;;4987563;28;20331;-75
2022/09/20 11:26:14;;;;;;;;;;;22.80;50.30;;;;;;5014253;28;19956;-74
2022/09/20 11:28:40;;;;;;;;;;;22.80;50.30;;;;;;4993882;28;19914;-74
2022/09/20 11:31:06;;;;;;;;;;;22.80;50.20;;;;;;5005085;28;20297;-74
2022/09/20 11:33:35;;;;;;;;;;;22.80;50.30;;;;;;5010844;28;19913;-73
2022/09/20 11:36:01;;;;;;;;;;;22.70;49.30;;;;;;5013875;28;19925;-72
2022/09/20 11:38:30;;;;;;;;;;;22.60;49.30;;;;;;5013638;28;19909;-74
2022/09/20 11:40:56;;;;;;;;;;;22.60;49.70;;;;;;5006918;28;20369;-74
2022/09/20 11:43:24;;;;;;;;;;;22.50;49.90;;;;;;4989005;28;19948;-74
2022/09/20 11:45:51;;;;;;;;;;;22.40;50.10;;;;;;5005763;28;19948;-75
2022/09/20 11:48:18;;;;;;;;;;;22.40;50.30;;;;;;5010998;28;19914;-74
2022/09/20 11:50:47;;;;;;;;;;;22.30;50.50;;;;;;5008203;28;19972;-74
2022/09/20 11:53:34;;;;;;;;;;;22.30;50.80;;;;;;5014668;28;19924;-75
2022/09/20 11:56:20;;;;;;;;;;;22.20;51.00;;;;;;5019156;28;20293;-75
2022/09/20 11:58:47;;;;;;;;;;;22.00;51.00;;;;;;5002748;28;19917;-74
2022/09/20 12:01:13;;;;;;;;;;;22.00;51.20;;;;;;5011231;28;19963;-74
2022/09/20 12:03:39;;;;;;;;;;;21.90;51.30;;;;;;5002809;28;19913;-74
2022/09/20 12:06:05;;;;;;;;;;;21.90;51.30;;;;;;5009829;28;19924;-73
2022/09/20 12:08:34;;;;;;;;;;;21.90;51.50;;;;;;5012194;28;20358;-75
2022/09/20 12:11:07;;;;;;;;;;;21.90;51.60;;;;;;5005591;28;19968;-74
2022/09/20 12:13:35;;;;;;;;;;;22.00;51.70;;;;;;5013784;28;19925;-74
2022/09/20 12:16:08;;;;;;;;;;;22.00;51.90;;;;;;5009150;28;19917;-75
2022/09/20 12:18:34;;;;;;;;;;;22.00;51.90;;;;;;5012821;28;20020;-74
2022/09/20 12:21:01;;;;;;;;;;;21.90;51.90;;;;;;5012467;28;20043;-73
2022/09/20 12:23:39;;;;;;;;;;;21.90;52.10;;;;;;5014740;28;20370;-74
2022/09/20 12:26:20;;;;;;;;;;;21.90;51.90;;;;;;5008240;28;19921;-74
2022/09/20 12:28:49;;;;;;;;;;;21.90;52.10;;;;;;5013448;28;19947;-74
2022/09/20 12:31:21;;;;;;;;;;;21.90;52.80;;;;;;4991792;28;20029;-74
2022/09/20 12:33:58;;;;;;;;;;;21.90;52.20;;;;;;5012502;28;20288;-74
2022/09/20 12:36:24;;;;;;;;;;;21.80;52.00;;;;;;5009920;28;19921;-74
2022/09/20 12:38:51;;;;;;;;;;;21.80;52.00;;;;;;5009894;28;20005;-74
2022/09/20 12:41:18;;;;;;;;;;;21.80;52.10;;;;;;5011681;28;20353;-74
2022/09/20 12:43:48;;;;;;;;;;;21.70;52.10;;;;;;5015070;28;20388;-74
2022/09/20 12:46:21;;;;;;;;;;;21.70;52.20;;;;;;5012277;28;19913;-74
2022/09/20 12:48:46;;;;;;;;;;;21.70;52.20;;;;;;5005080;28;20381;-74
2022/09/20 12:54:06;;;;;;;;;;;21.70;52.30;;;;;;5010439;28;20402;-73
2022/09/20 12:56:35;;;;;;;;;;;21.70;52.30;;;;;;4993655;28;20373;-73
2022/09/20 12:59:04;;;;;;;;;;;21.70;52.50;;;;;;4998130;28;20004;-73
2022/09/20 13:01:34;;;;;;;;;;;21.60;52.40;;;;;;5014372;28;19922;-74
2022/09/20 13:04:18;;;;;;;;;;;21.60;52.60;;;;;;5005252;28;19975;-74
2022/09/20 13:06:44;;;;;;;;;;;21.60;52.60;;;;;;5011284;28;19984;-73
2022/09/20 13:09:09;;;;;;;;;;;21.50;52.70;;;;;;5010374;28;19945;-74
2022/09/20 13:11:44;;;;;;;;;;;21.50;52.70;;;;;;5012509;28;20018;-74
2022/09/20 13:14:19;;;;;;;;;;;21.50;52.70;;;;;;5013725;28;19956;-75
2022/09/20 13:16:54;;;;;;;;;;;21.40;52.70;;;;;;5012923;28;19914;-73
2022/09/20 13:19:21;;;;;;;;;;;21.40;52.80;;;;;;5006641;28;19913;-74
2022/09/20 13:21:57;;;;;;;;;;;21.40;52.90;;;;;;4995505;28;19918;-74
2022/09/20 13:24:22;;;;;;;;;;;21.40;52.80;;;;;;5006776;28;19950;-74
2022/09/20 13:26:48;;;;;;;;;;;21.40;52.80;;;;;;4993092;28;20414;-74
2022/09/20 13:29:32;;;;;;;;;;;21.40;52.90;;;;;;5019438;28;19974;-73
2022/09/20 13:32:17;;;;;;;;;;;21.40;53.00;;;;;;5007650;28;20015;-74
2022/09/20 13:34:44;;;;;;;;;;;21.40;53.10;;;;;;5009739;28;19922;-74
2022/09/20 13:37:19;;;;;;;;;;;21.40;53.10;;;;;;5004596;28;19984;-74
2022/09/20 13:39:45;;;;;;;;;;;21.40;53.20;;;;;;5006253;28;21991;-74
2022/09/20 13:42:15;;;;;;;;;;;21.40;53.20;;;;;;4994633;28;19917;-73
2022/09/20 13:44:41;;;;;;;;;;;21.30;53.20;;;;;;5015384;28;19917;-75
2022/09/20 13:47:23;;;;;;;;;;;21.30;53.30;;;;;;5009163;28;20345;-74
2022/09/20 13:49:49;;;;;;;;;;;21.20;53.30;;;;;;4992509;28;19913;-74
2022/09/20 13:52:21;;;;;;;;;;;21.20;53.40;;;;;;5006131;28;19966;-74
2022/09/20 13:54:47;;;;;;;;;;;21.20;53.50;;;;;;5011900;28;20439;-75
2022/09/20 13:57:15;;;;;;;;;;;21.20;53.60;;;;;;5011233;28;19997;-74
2022/09/20 13:59:41;;;;;;;;;;;21.20;53.50;;;;;;5007451;28;19943;-75
2022/09/20 14:02:23;;;;;;;;;;;21.10;53.60;;;;;;4990147;28;19917;-74
2022/09/20 14:04:50;;;;;;;;;;;21.10;53.60;;;;;;4990624;28;19925;-74
2022/09/20 14:07:15;;;;;;;;;;;21.10;53.60;;;;;;5011293;28;19971;-74
2022/09/20 14:09:41;;;;;;;;;;;21.10;53.50;;;;;;5010815;28;20004;-74
2022/09/20 14:12:06;;;;;;;;;;;21.20;53.50;;;;;;5009328;28;19922;-75
2022/09/20 14:14:32;;;;;;;;;;;21.10;53.70;;;;;;5006721;28;19920;-74
2022/09/20 14:16:57;;;;;;;;;;;21.10;53.70;;;;;;5003361;28;20448;-73
2022/09/20 14:19:25;;;;;;;;;;;21.20;53.70;;;;;;5010013;28;19968;-73
2022/09/20 14:21:50;;;;;;;;;;;21.20;53.80;;;;;;5008036;28;19963;-74
2022/09/20 14:24:16;;;;;;;;;;;21.20;53.70;;;;;;5008739;28;20344;-74
2022/09/20 14:26:42;;;;;;;;;;;21.20;53.70;;;;;;5009322;28;19921;-74
2022/09/20 14:29:46;;;;;;;;;;;21.20;53.70;;;;;;4995042;28;19921;-74
2022/09/20 14:32:19;;;;;;;;;;;21.20;53.60;;;;;;4986671;28;19961;-74
2022/09/20 14:34:45;;;;;;;;;;;21.20;53.70;;;;;;4989462;28;19918;-74
2022/09/20 14:37:21;;;;;;;;;;;21.20;53.60;;;;;;5000463;28;19939;-74
2022/09/20 14:39:47;;;;;;;;;;;21.20;53.70;;;;;;5013743;28;19917;-74
2022/09/20 14:42:16;;;;;;;;;;;21.10;53.50;;;;;;5009820;28;20365;-74
2022/09/20 14:44:42;;;;;;;;;;;21.10;53.50;;;;;;5008032;28;19953;-73
2022/09/20 14:47:14;;;;;;;;;;;21.10;53.40;;;;;;5009723;28;19952;-74
2022/09/20 14:49:39;;;;;;;;;;;21.10;53.20;;;;;;5004247;28;19921;-74
2022/09/20 14:52:23;;;;;;;;;;;21.10;53.30;;;;;;5006043;28;19948;-74
2022/09/20 14:55:07;;;;;;;;;;;21.10;53.30;;;;;;5009210;28;19914;-74
2022/09/20 14:57:33;;;;;;;;;;;21.10;53.40;;;;;;5003599;28;19928;-74